sensor_id;sensor_type;location;lat;lon;timestamp;P1;durP1;ratioP1;P2;durP2;ratioP2
15528;SDS011;7866;52.280;9.500;2023-11-21T00:02:06;10.47;;;7.30;;
15528;SDS011;7866;52.280;9.500;2023-11-21T00:07:08;10.83;;;7.17;;
15528;SDS011;7866;52.280;9.500;2023-11-21T00:12:09;13.47;;;7.60;;
15528;SDS011;7866;52.280;9.500;2023-11-21T00:17:12;12.33;;;7.70;;
15528;SDS011;7866;52.280;9.500;2023-11-21T00:22:14;15.70;;;7.40;;
15528;SDS011;7866;52.280;9.500;2023-11-21T00:27:16;12.83;;;8.10;;
15528;SDS011;7866;52.280;9.500;2023-11-21T00:32:19;12.00;;;8.10;;
15528;SDS011;7866;52.280;9.500;2023-11-21T00:37:20;16.50;;;9.10;;
15528;SDS011;7866;52.280;9.500;2023-11-21T00:42:25;18.40;;;10.10;;
15528;SDS011;7866;52.280;9.500;2023-11-21T00:47:29;15.73;;;8.53;;
15528;SDS011;7866;52.280;9.500;2023-11-21T00:52:30;16.70;;;10.00;;
15528;SDS011;7866;52.280;9.500;2023-11-21T00:57:32;16.13;;;9.30;;
15528;SDS011;7866;52.280;9.500;2023-11-21T01:02:38;20.50;;;10.40;;
15528;SDS011;7866;52.280;9.500;2023-11-21T01:07:40;18.20;;;10.50;;
15528;SDS011;7866;52.280;9.500;2023-11-21T01:12:41;22.47;;;11.10;;
15528;SDS011;7866;52.280;9.500;2023-11-21T01:17:44;16.40;;;11.13;;
15528;SDS011;7866;52.280;9.500;2023-11-21T01:22:46;19.43;;;11.70;;
15528;SDS011;7866;52.280;9.500;2023-11-21T01:27:49;19.43;;;11.23;;
15528;SDS011;7866;52.280;9.500;2023-11-21T01:32:52;18.37;;;11.43;;
15528;SDS011;7866;52.280;9.500;2023-11-21T01:37:53;18.30;;;11.43;;
15528;SDS011;7866;52.280;9.500;2023-11-21T01:42:55;23.13;;;13.87;;
15528;SDS011;7866;52.280;9.500;2023-11-21T01:47:59;17.07;;;11.90;;
15528;SDS011;7866;52.280;9.500;2023-11-21T01:53:01;15.80;;;10.90;;
15528;SDS011;7866;52.280;9.500;2023-11-21T01:58:03;17.63;;;11.60;;
15528;SDS011;7866;52.280;9.500;2023-11-21T02:03:06;21.27;;;12.97;;
15528;SDS011;7866;52.280;9.500;2023-11-21T02:08:08;20.67;;;12.77;;
15528;SDS011;7866;52.280;9.500;2023-11-21T02:13:10;18.47;;;12.27;;
15528;SDS011;7866;52.280;9.500;2023-11-21T02:18:13;21.10;;;12.33;;
15528;SDS011;7866;52.280;9.500;2023-11-21T02:23:16;21.40;;;13.57;;
15528;SDS011;7866;52.280;9.500;2023-11-21T02:28:18;21.40;;;14.33;;
15528;SDS011;7866;52.280;9.500;2023-11-21T02:33:25;20.77;;;13.77;;
15528;SDS011;7866;52.280;9.500;2023-11-21T02:38:28;21.83;;;14.00;;
15528;SDS011;7866;52.280;9.500;2023-11-21T02:43:30;17.50;;;13.40;;
15528;SDS011;7866;52.280;9.500;2023-11-21T02:48:32;23.07;;;14.20;;
15528;SDS011;7866;52.280;9.500;2023-11-21T02:53:35;20.80;;;13.17;;
15528;SDS011;7866;52.280;9.500;2023-11-21T02:58:41;21.40;;;12.93;;
15528;SDS011;7866;52.280;9.500;2023-11-21T03:03:43;19.80;;;12.77;;
15528;SDS011;7866;52.280;9.500;2023-11-21T03:08:47;23.60;;;14.20;;
15528;SDS011;7866;52.280;9.500;2023-11-21T03:13:48;20.53;;;13.33;;
15528;SDS011;7866;52.280;9.500;2023-11-21T03:18:50;24.13;;;14.60;;
15528;SDS011;7866;52.280;9.500;2023-11-21T03:23:53;23.13;;;15.53;;
15528;SDS011;7866;52.280;9.500;2023-11-21T03:28:55;24.10;;;15.90;;
15528;SDS011;7866;52.280;9.500;2023-11-21T03:33:57;25.50;;;16.27;;
15528;SDS011;7866;52.280;9.500;2023-11-21T03:39:00;22.70;;;15.77;;
15528;SDS011;7866;52.280;9.500;2023-11-21T03:44:02;24.00;;;15.30;;
15528;SDS011;7866;52.280;9.500;2023-11-21T03:49:03;21.90;;;15.13;;
15528;SDS011;7866;52.280;9.500;2023-11-21T03:54:07;21.50;;;14.87;;
15528;SDS011;7866;52.280;9.500;2023-11-21T03:59:08;20.83;;;14.43;;
15528;SDS011;7866;52.280;9.500;2023-11-21T04:04:10;24.13;;;14.60;;
15528;SDS011;7866;52.280;9.500;2023-11-21T04:09:13;19.57;;;14.17;;
15528;SDS011;7866;52.280;9.500;2023-11-21T04:14:15;19.20;;;14.60;;
15528;SDS011;7866;52.280;9.500;2023-11-21T04:19:17;22.70;;;15.30;;
15528;SDS011;7866;52.280;9.500;2023-11-21T04:24:20;23.60;;;14.57;;
15528;SDS011;7866;52.280;9.500;2023-11-21T04:29:21;21.13;;;14.70;;
15528;SDS011;7866;52.280;9.500;2023-11-21T04:34:23;16.50;;;13.00;;
15528;SDS011;7866;52.280;9.500;2023-11-21T04:39:26;18.57;;;12.97;;
15528;SDS011;7866;52.280;9.500;2023-11-21T04:44:28;15.87;;;11.93;;
15528;SDS011;7866;52.280;9.500;2023-11-21T04:49:30;13.67;;;10.07;;
15528;SDS011;7866;52.280;9.500;2023-11-21T04:54:33;11.63;;;9.43;;
15528;SDS011;7866;52.280;9.500;2023-11-21T04:59:34;8.23;;;7.27;;
15528;SDS011;7866;52.280;9.500;2023-11-21T05:04:36;9.57;;;7.30;;
15528;SDS011;7866;52.280;9.500;2023-11-21T05:09:41;8.70;;;6.53;;
15528;SDS011;7866;52.280;9.500;2023-11-21T05:14:44;6.40;;;5.80;;
15528;SDS011;7866;52.280;9.500;2023-11-21T05:19:46;7.13;;;5.13;;
15528;SDS011;7866;52.280;9.500;2023-11-21T05:24:50;5.27;;;4.63;;
15528;SDS011;7866;52.280;9.500;2023-11-21T05:29:51;5.40;;;4.10;;
15528;SDS011;7866;52.280;9.500;2023-11-21T05:34:53;3.70;;;3.40;;
15528;SDS011;7866;52.280;9.500;2023-11-21T05:39:56;4.23;;;3.73;;
15528;SDS011;7866;52.280;9.500;2023-11-21T05:44:58;3.30;;;3.00;;
15528;SDS011;7866;52.280;9.500;2023-11-21T05:50:10;6.00;;;4.43;;
15528;SDS011;7866;52.280;9.500;2023-11-21T05:55:16;5.60;;;4.90;;
15528;SDS011;7866;52.280;9.500;2023-11-21T06:00:17;5.60;;;4.77;;
15528;SDS011;7866;52.280;9.500;2023-11-21T06:05:22;6.13;;;5.07;;
15528;SDS011;7866;52.280;9.500;2023-11-21T06:10:26;4.57;;;4.07;;
15528;SDS011;7866;52.280;9.500;2023-11-21T06:15:28;4.93;;;4.43;;
15528;SDS011;7866;52.280;9.500;2023-11-21T06:20:29;6.00;;;5.00;;
15528;SDS011;7866;52.280;9.500;2023-11-21T06:25:33;5.10;;;4.60;;
15528;SDS011;7866;52.280;9.500;2023-11-21T06:30:36;4.60;;;3.90;;
15528;SDS011;7866;52.280;9.500;2023-11-21T06:35:38;6.40;;;4.57;;
15528;SDS011;7866;52.280;9.500;2023-11-21T06:40:41;5.70;;;4.43;;
15528;SDS011;7866;52.280;9.500;2023-11-21T06:45:43;5.00;;;4.30;;
15528;SDS011;7866;52.280;9.500;2023-11-21T06:50:46;3.77;;;3.40;;
15528;SDS011;7866;52.280;9.500;2023-11-21T06:55:49;4.00;;;3.60;;
15528;SDS011;7866;52.280;9.500;2023-11-21T07:00:50;3.20;;;2.90;;
15528;SDS011;7866;52.280;9.500;2023-11-21T07:05:52;2.80;;;2.60;;
15528;SDS011;7866;52.280;9.500;2023-11-21T07:10:55;4.57;;;4.03;;
15528;SDS011;7866;52.280;9.500;2023-11-21T07:15:57;4.20;;;3.80;;
15528;SDS011;7866;52.280;9.500;2023-11-21T07:20:59;4.77;;;4.37;;
15528;SDS011;7866;52.280;9.500;2023-11-21T07:26:02;9.53;;;4.23;;
15528;SDS011;7866;52.280;9.500;2023-11-21T07:31:08;5.10;;;4.60;;
15528;SDS011;7866;52.280;9.500;2023-11-21T07:36:10;5.13;;;4.63;;
15528;SDS011;7866;52.280;9.500;2023-11-21T07:41:13;5.63;;;5.10;;
15528;SDS011;7866;52.280;9.500;2023-11-21T07:46:15;5.10;;;4.60;;
15528;SDS011;7866;52.280;9.500;2023-11-21T07:51:18;6.63;;;4.50;;
15528;SDS011;7866;52.280;9.500;2023-11-21T07:56:21;5.77;;;4.93;;
15528;SDS011;7866;52.280;9.500;2023-11-21T08:01:22;5.07;;;4.50;;
15528;SDS011;7866;52.280;9.500;2023-11-21T08:06:24;4.40;;;4.00;;
15528;SDS011;7866;52.280;9.500;2023-11-21T08:11:27;4.90;;;4.40;;
15528;SDS011;7866;52.280;9.500;2023-11-21T08:16:31;7.53;;;4.30;;
15528;SDS011;7866;52.280;9.500;2023-11-21T08:21:33;3.93;;;3.53;;
15528;SDS011;7866;52.280;9.500;2023-11-21T08:26:38;4.57;;;3.40;;
15528;SDS011;7866;52.280;9.500;2023-11-21T08:31:40;5.67;;;3.53;;
15528;SDS011;7866;52.280;9.500;2023-11-21T08:36:41;3.60;;;3.30;;
15528;SDS011;7866;52.280;9.500;2023-11-21T08:41:45;3.87;;;3.57;;
15528;SDS011;7866;52.280;9.500;2023-11-21T08:46:46;4.17;;;3.50;;
15528;SDS011;7866;52.280;9.500;2023-11-21T08:51:49;4.20;;;3.80;;
15528;SDS011;7866;52.280;9.500;2023-11-21T08:56:52;4.13;;;3.73;;
15528;SDS011;7866;52.280;9.500;2023-11-21T09:01:54;4.70;;;4.30;;
15528;SDS011;7866;52.280;9.500;2023-11-21T09:06:56;4.47;;;4.07;;
15528;SDS011;7866;52.280;9.500;2023-11-21T09:12:01;6.20;;;5.13;;
15528;SDS011;7866;52.280;9.500;2023-11-21T09:17:03;5.77;;;5.17;;
15528;SDS011;7866;52.280;9.500;2023-11-21T09:22:10;5.73;;;5.23;;
15528;SDS011;7866;52.280;9.500;2023-11-21T09:27:13;7.13;;;6.43;;
15528;SDS011;7866;52.280;9.500;2023-11-21T09:32:15;8.00;;;7.20;;
15528;SDS011;7866;52.280;9.500;2023-11-21T09:37:18;8.53;;;7.63;;
15528;SDS011;7866;52.280;9.500;2023-11-21T09:42:22;8.17;;;7.37;;
15528;SDS011;7866;52.280;9.500;2023-11-21T09:47:26;8.60;;;7.63;;
15528;SDS011;7866;52.280;9.500;2023-11-21T09:52:29;8.90;;;7.73;;
15528;SDS011;7866;52.280;9.500;2023-11-21T09:57:34;8.37;;;7.57;;
15528;SDS011;7866;52.280;9.500;2023-11-21T10:02:36;8.20;;;7.40;;
15528;SDS011;7866;52.280;9.500;2023-11-21T10:07:39;7.23;;;6.50;;
15528;SDS011;7866;52.280;9.500;2023-11-21T10:12:42;7.57;;;6.87;;
15528;SDS011;7866;52.280;9.500;2023-11-21T10:17:51;7.63;;;6.83;;
15528;SDS011;7866;52.280;9.500;2023-11-21T10:22:54;8.20;;;7.40;;
15528;SDS011;7866;52.280;9.500;2023-11-21T10:27:58;7.77;;;6.97;;
15528;SDS011;7866;52.280;9.500;2023-11-21T10:33:05;7.33;;;6.67;;
15528;SDS011;7866;52.280;9.500;2023-11-21T10:38:08;6.63;;;5.90;;
15528;SDS011;7866;52.280;9.500;2023-11-21T10:43:11;6.83;;;6.13;;
15528;SDS011;7866;52.280;9.500;2023-11-21T10:48:15;6.57;;;5.97;;
15528;SDS011;7866;52.280;9.500;2023-11-21T10:53:17;6.83;;;6.17;;
15528;SDS011;7866;52.280;9.500;2023-11-21T10:58:20;6.57;;;5.97;;
15528;SDS011;7866;52.280;9.500;2023-11-21T11:03:22;7.17;;;6.53;;
15528;SDS011;7866;52.280;9.500;2023-11-21T11:08:24;7.30;;;6.00;;
15528;SDS011;7866;52.280;9.500;2023-11-21T11:13:28;6.53;;;5.77;;
15528;SDS011;7866;52.280;9.500;2023-11-21T11:18:31;6.67;;;6.00;;
15528;SDS011;7866;52.280;9.500;2023-11-21T11:23:37;8.20;;;5.57;;
15528;SDS011;7866;52.280;9.500;2023-11-21T11:28:54;5.80;;;5.10;;
15528;SDS011;7866;52.280;9.500;2023-11-21T11:34:08;5.53;;;5.03;;
15528;SDS011;7866;52.280;9.500;2023-11-21T11:39:28;6.63;;;5.07;;
15528;SDS011;7866;52.280;9.500;2023-11-21T11:44:48;5.53;;;5.03;;
15528;SDS011;7866;52.280;9.500;2023-11-21T11:49:59;5.00;;;4.60;;
15528;SDS011;7866;52.280;9.500;2023-11-21T11:55:07;4.97;;;4.57;;
15528;SDS011;7866;52.280;9.500;2023-11-21T12:00:15;8.07;;;5.50;;
15528;SDS011;7866;52.280;9.500;2023-11-21T12:05:20;6.47;;;5.87;;
15528;SDS011;7866;52.280;9.500;2023-11-21T12:10:23;6.67;;;5.97;;
15528;SDS011;7866;52.280;9.500;2023-11-21T12:15:29;7.33;;;6.63;;
15528;SDS011;7866;52.280;9.500;2023-11-21T12:20:31;5.97;;;5.40;;
15528;SDS011;7866;52.280;9.500;2023-11-21T12:25:38;6.07;;;5.57;;
15528;SDS011;7866;52.280;9.500;2023-11-21T12:30:42;5.67;;;5.17;;
15528;SDS011;7866;52.280;9.500;2023-11-21T12:35:45;5.70;;;5.20;;
15528;SDS011;7866;52.280;9.500;2023-11-21T12:40:46;5.53;;;5.03;;
15528;SDS011;7866;52.280;9.500;2023-11-21T12:45:50;5.53;;;5.03;;
15528;SDS011;7866;52.280;9.500;2023-11-21T12:50:53;6.00;;;5.37;;
15528;SDS011;7866;52.280;9.500;2023-11-21T12:55:56;5.07;;;4.57;;
15528;SDS011;7866;52.280;9.500;2023-11-21T13:01:02;5.10;;;4.60;;
15528;SDS011;7866;52.280;9.500;2023-11-21T13:06:05;5.50;;;5.00;;
15528;SDS011;7866;52.280;9.500;2023-11-21T13:11:07;5.57;;;5.00;;
15528;SDS011;7866;52.280;9.500;2023-11-21T13:16:10;6.20;;;5.20;;
15528;SDS011;7866;52.280;9.500;2023-11-21T13:21:13;6.17;;;4.60;;
15528;SDS011;7866;52.280;9.500;2023-11-21T13:26:15;6.00;;;4.60;;
15528;SDS011;7866;52.280;9.500;2023-11-21T13:31:18;7.10;;;4.50;;
15528;SDS011;7866;52.280;9.500;2023-11-21T13:36:26;4.97;;;4.57;;
15528;SDS011;7866;52.280;9.500;2023-11-21T13:41:31;6.10;;;5.10;;
15528;SDS011;7866;52.280;9.500;2023-11-21T13:46:34;5.10;;;4.60;;
15528;SDS011;7866;52.280;9.500;2023-11-21T13:51:37;5.10;;;4.60;;
15528;SDS011;7866;52.280;9.500;2023-11-21T13:56:43;5.60;;;5.10;;
15528;SDS011;7866;52.280;9.500;2023-11-21T14:01:50;6.17;;;5.20;;
15528;SDS011;7866;52.280;9.500;2023-11-21T14:06:57;6.73;;;5.90;;
15528;SDS011;7866;52.280;9.500;2023-11-21T14:12:01;6.57;;;5.97;;
15528;SDS011;7866;52.280;9.500;2023-11-21T14:17:07;5.77;;;5.20;;
15528;SDS011;7866;52.280;9.500;2023-11-21T14:22:10;5.03;;;4.63;;
15528;SDS011;7866;52.280;9.500;2023-11-21T14:27:12;5.60;;;4.33;;
15528;SDS011;7866;52.280;9.500;2023-11-21T14:32:16;4.93;;;4.47;;
15528;SDS011;7866;52.280;9.500;2023-11-21T14:37:17;5.53;;;4.10;;
15528;SDS011;7866;52.280;9.500;2023-11-21T14:42:20;5.10;;;4.10;;
15528;SDS011;7866;52.280;9.500;2023-11-21T14:47:26;4.87;;;3.97;;
15528;SDS011;7866;52.280;9.500;2023-11-21T14:52:28;4.03;;;3.63;;
15528;SDS011;7866;52.280;9.500;2023-11-21T14:57:34;5.77;;;5.10;;
15528;SDS011;7866;52.280;9.500;2023-11-21T15:02:37;8.97;;;4.70;;
15528;SDS011;7866;52.280;9.500;2023-11-21T15:07:49;4.63;;;4.13;;
15528;SDS011;7866;52.280;9.500;2023-11-21T15:12:55;4.43;;;4.03;;
15528;SDS011;7866;52.280;9.500;2023-11-21T15:17:59;4.20;;;3.80;;
15528;SDS011;7866;52.280;9.500;2023-11-21T15:23:01;4.60;;;4.20;;
15528;SDS011;7866;52.280;9.500;2023-11-21T15:28:05;4.40;;;3.90;;
15528;SDS011;7866;52.280;9.500;2023-11-21T15:33:11;4.37;;;3.97;;
15528;SDS011;7866;52.280;9.500;2023-11-21T15:38:12;4.23;;;3.83;;
15528;SDS011;7866;52.280;9.500;2023-11-21T15:43:14;3.70;;;3.40;;
15528;SDS011;7866;52.280;9.500;2023-11-21T15:48:17;3.90;;;3.50;;
15528;SDS011;7866;52.280;9.500;2023-11-21T15:53:18;3.60;;;3.30;;
15528;SDS011;7866;52.280;9.500;2023-11-21T15:58:20;3.90;;;3.60;;
15528;SDS011;7866;52.280;9.500;2023-11-21T16:03:23;6.63;;;4.90;;
15528;SDS011;7866;52.280;9.500;2023-11-21T16:08:25;4.57;;;4.17;;
15528;SDS011;7866;52.280;9.500;2023-11-21T16:13:26;6.70;;;5.93;;
15528;SDS011;7866;52.280;9.500;2023-11-21T16:18:29;5.80;;;4.80;;
15528;SDS011;7866;52.280;9.500;2023-11-21T16:23:31;4.97;;;4.03;;
15528;SDS011;7866;52.280;9.500;2023-11-21T16:28:32;4.50;;;4.10;;
15528;SDS011;7866;52.280;9.500;2023-11-21T16:33:35;5.90;;;4.70;;
15528;SDS011;7866;52.280;9.500;2023-11-21T16:38:37;4.13;;;3.80;;
15528;SDS011;7866;52.280;9.500;2023-11-21T16:43:39;3.90;;;3.57;;
15528;SDS011;7866;52.280;9.500;2023-11-21T16:48:42;4.73;;;3.93;;
15528;SDS011;7866;52.280;9.500;2023-11-21T16:53:43;6.87;;;4.10;;
15528;SDS011;7866;52.280;9.500;2023-11-21T16:58:45;4.37;;;3.97;;
15528;SDS011;7866;52.280;9.500;2023-11-21T17:03:48;4.27;;;3.50;;
15528;SDS011;7866;52.280;9.500;2023-11-21T17:08:51;7.20;;;5.80;;
15528;SDS011;7866;52.280;9.500;2023-11-21T17:13:53;4.33;;;3.97;;
15528;SDS011;7866;52.280;9.500;2023-11-21T17:18:56;3.90;;;3.60;;
15528;SDS011;7866;52.280;9.500;2023-11-21T17:23:58;4.80;;;4.40;;
15528;SDS011;7866;52.280;9.500;2023-11-21T17:29:01;4.80;;;4.40;;
15528;SDS011;7866;52.280;9.500;2023-11-21T17:34:04;4.43;;;4.03;;
15528;SDS011;7866;52.280;9.500;2023-11-21T17:39:05;4.40;;;4.00;;
15528;SDS011;7866;52.280;9.500;2023-11-21T17:44:10;4.77;;;4.17;;
15528;SDS011;7866;52.280;9.500;2023-11-21T17:49:14;5.03;;;3.80;;
15528;SDS011;7866;52.280;9.500;2023-11-21T17:54:15;4.40;;;4.00;;
15528;SDS011;7866;52.280;9.500;2023-11-21T17:59:17;4.20;;;3.87;;
15528;SDS011;7866;52.280;9.500;2023-11-21T18:04:20;3.60;;;3.30;;
15528;SDS011;7866;52.280;9.500;2023-11-21T18:09:23;3.90;;;3.60;;
15528;SDS011;7866;52.280;9.500;2023-11-21T18:14:24;4.00;;;3.70;;
15528;SDS011;7866;52.280;9.500;2023-11-21T18:19:27;4.60;;;4.20;;
15528;SDS011;7866;52.280;9.500;2023-11-21T18:24:29;4.00;;;3.70;;
15528;SDS011;7866;52.280;9.500;2023-11-21T18:29:31;4.27;;;3.87;;
15528;SDS011;7866;52.280;9.500;2023-11-21T18:34:34;4.30;;;3.90;;
15528;SDS011;7866;52.280;9.500;2023-11-21T18:39:36;6.77;;;4.63;;
15528;SDS011;7866;52.280;9.500;2023-11-21T18:44:40;9.87;;;6.53;;
15528;SDS011;7866;52.280;9.500;2023-11-21T18:49:43;18.50;;;14.07;;
15528;SDS011;7866;52.280;9.500;2023-11-21T18:54:45;12.93;;;10.07;;
15528;SDS011;7866;52.280;9.500;2023-11-21T18:59:48;11.40;;;10.00;;
15528;SDS011;7866;52.280;9.500;2023-11-21T19:04:51;11.70;;;9.83;;
15528;SDS011;7866;52.280;9.500;2023-11-21T19:09:53;9.97;;;7.70;;
15528;SDS011;7866;52.280;9.500;2023-11-21T19:14:55;8.90;;;6.73;;
15528;SDS011;7866;52.280;9.500;2023-11-21T19:19:58;5.80;;;5.30;;
15528;SDS011;7866;52.280;9.500;2023-11-21T19:25:00;6.50;;;5.47;;
15528;SDS011;7866;52.280;9.500;2023-11-21T19:30:01;5.90;;;5.13;;
15528;SDS011;7866;52.280;9.500;2023-11-21T19:35:06;4.77;;;4.17;;
15528;SDS011;7866;52.280;9.500;2023-11-21T19:40:09;5.53;;;4.60;;
15528;SDS011;7866;52.280;9.500;2023-11-21T19:45:12;3.83;;;3.53;;
15528;SDS011;7866;52.280;9.500;2023-11-21T19:50:15;4.87;;;4.10;;
15528;SDS011;7866;52.280;9.500;2023-11-21T19:55:17;4.67;;;4.27;;
15528;SDS011;7866;52.280;9.500;2023-11-21T20:00:19;5.07;;;4.03;;
15528;SDS011;7866;52.280;9.500;2023-11-21T20:05:22;4.10;;;3.80;;
15528;SDS011;7866;52.280;9.500;2023-11-21T20:10:23;5.17;;;3.90;;
15528;SDS011;7866;52.280;9.500;2023-11-21T20:15:25;4.37;;;3.97;;
15528;SDS011;7866;52.280;9.500;2023-11-21T20:20:28;4.43;;;4.03;;
15528;SDS011;7866;52.280;9.500;2023-11-21T20:25:30;3.40;;;3.10;;
15528;SDS011;7866;52.280;9.500;2023-11-21T20:30:33;3.87;;;2.83;;
15528;SDS011;7866;52.280;9.500;2023-11-21T20:35:36;3.07;;;2.77;;
15528;SDS011;7866;52.280;9.500;2023-11-21T20:40:40;3.50;;;3.30;;
15528;SDS011;7866;52.280;9.500;2023-11-21T20:45:42;2.57;;;2.37;;
15528;SDS011;7866;52.280;9.500;2023-11-21T20:50:45;2.70;;;2.50;;
15528;SDS011;7866;52.280;9.500;2023-11-21T20:55:46;2.17;;;2.07;;
15528;SDS011;7866;52.280;9.500;2023-11-21T21:00:49;3.27;;;3.00;;
15528;SDS011;7866;52.280;9.500;2023-11-21T21:05:52;2.60;;;2.40;;
15528;SDS011;7866;52.280;9.500;2023-11-21T21:10:53;3.47;;;2.50;;
15528;SDS011;7866;52.280;9.500;2023-11-21T21:15:55;2.80;;;2.60;;
15528;SDS011;7866;52.280;9.500;2023-11-21T21:20:58;3.30;;;3.00;;
15528;SDS011;7866;52.280;9.500;2023-11-21T21:26:01;3.33;;;3.13;;
15528;SDS011;7866;52.280;9.500;2023-11-21T21:31:07;3.83;;;3.17;;
15528;SDS011;7866;52.280;9.500;2023-11-21T21:36:10;4.60;;;3.47;;
15528;SDS011;7866;52.280;9.500;2023-11-21T21:41:12;3.63;;;3.30;;
15528;SDS011;7866;52.280;9.500;2023-11-21T21:46:18;4.33;;;3.13;;
15528;SDS011;7866;52.280;9.500;2023-11-21T21:51:22;3.43;;;3.00;;
15528;SDS011;7866;52.280;9.500;2023-11-21T21:56:24;3.00;;;2.70;;
15528;SDS011;7866;52.280;9.500;2023-11-21T22:01:27;4.07;;;3.63;;
15528;SDS011;7866;52.280;9.500;2023-11-21T22:06:32;3.40;;;3.10;;
15528;SDS011;7866;52.280;9.500;2023-11-21T22:11:34;3.50;;;3.20;;
15528;SDS011;7866;52.280;9.500;2023-11-21T22:16:35;5.20;;;3.20;;
15528;SDS011;7866;52.280;9.500;2023-11-21T22:21:38;3.10;;;2.87;;
15528;SDS011;7866;52.280;9.500;2023-11-21T22:26:40;3.33;;;3.13;;
15528;SDS011;7866;52.280;9.500;2023-11-21T22:31:42;3.80;;;3.50;;
15528;SDS011;7866;52.280;9.500;2023-11-21T22:36:45;4.70;;;3.33;;
15528;SDS011;7866;52.280;9.500;2023-11-21T22:41:46;4.13;;;3.73;;
15528;SDS011;7866;52.280;9.500;2023-11-21T22:46:50;3.53;;;3.23;;
15528;SDS011;7866;52.280;9.500;2023-11-21T22:51:53;3.70;;;3.27;;
15528;SDS011;7866;52.280;9.500;2023-11-21T22:56:56;3.70;;;3.40;;
15528;SDS011;7866;52.280;9.500;2023-11-21T23:01:58;3.63;;;3.33;;
15528;SDS011;7866;52.280;9.500;2023-11-21T23:07:01;4.10;;;3.70;;
15528;SDS011;7866;52.280;9.500;2023-11-21T23:12:04;4.67;;;3.20;;
15528;SDS011;7866;52.280;9.500;2023-11-21T23:17:07;3.87;;;3.20;;
15528;SDS011;7866;52.280;9.500;2023-11-21T23:22:10;3.60;;;2.83;;
15528;SDS011;7866;52.280;9.500;2023-11-21T23:27:11;8.57;;;4.50;;
15528;SDS011;7866;52.280;9.500;2023-11-21T23:32:13;3.83;;;3.43;;
15528;SDS011;7866;52.280;9.500;2023-11-21T23:37:16;4.27;;;3.20;;
15528;SDS011;7866;52.280;9.500;2023-11-21T23:42:18;3.33;;;3.00;;
15528;SDS011;7866;52.280;9.500;2023-11-21T23:47:20;3.00;;;2.80;;
15528;SDS011;7866;52.280;9.500;2023-11-21T23:52:23;3.00;;;2.80;;
15528;SDS011;7866;52.280;9.500;2023-11-21T23:57:24;4.37;;;2.83;;
